Terminal Aerodrome Forecast
Issued by NWS Twin Cities, MN

Home | Current Version | Previous Version | Text Only | Print | Product List | Glossary Off
Versions: 1 2 3 4 5 6 7 8 9 10 11 12

602
FTUS43 KMPX 241721
TAFEAU
TAF
KEAU 241721Z 2418/2518 29008KT P6SM SCT020 BKN030
     FM242000 29010KT P6SM SCT025 BKN050
     FM250000 27004KT P6SM BKN150
     FM251500 28008G16KT P6SM BKN250=

USA.gov is the U.S. government's official web portal to all federal, state and local government web resources and services.